Time;durP1;ratioP1;P1;durP2;ratioP2;P2;SDS_P1;SDS_P2;PMS_P1;PMS_P2;Temp;Humidity;BMP_temperature;BMP_pressure;BME280_temperature;BME280_humidity;BME280_pressure;Samples;Min_cycle;Max_cycle;Signal;HPM_P1;HPM_P2
2021/10/21 00:02:08;;;;;;;13.30;7.35;;;14.40;99.90;;;;;;5036445;28;20036;-64
2021/10/21 00:04:33;;;;;;;10.55;6.05;;;14.50;99.90;;;;;;5045164;28;20044;-64
2021/10/21 00:06:59;;;;;;;9.25;5.45;;;14.60;99.90;;;;;;5046611;28;20021;-64
2021/10/21 00:09:24;;;;;;;11.40;5.30;;;14.60;99.90;;;;;;5036368;28;20432;-64
2021/10/21 00:11:50;;;;;;;9.23;5.07;;;14.70;99.90;;;;;;5033479;28;20389;-66
2021/10/21 00:14:16;;;;;;;10.13;5.20;;;14.60;99.90;;;;;;5034537;28;20473;-66
2021/10/21 00:16:42;;;;;;;9.75;5.65;;;14.50;99.90;;;;;;5043403;28;20071;-67
2021/10/21 00:19:07;;;;;;;8.48;5.28;;;14.30;99.90;;;;;;5042869;28;20040;-67
2021/10/21 00:21:33;;;;;;;12.10;6.22;;;14.30;99.90;;;;;;5034795;28;20079;-66
2021/10/21 00:23:59;;;;;;;5.45;3.25;;;14.20;99.90;;;;;;5044950;28;20017;-66
2021/10/21 00:26:24;;;;;;;5.00;2.58;;;14.00;99.90;;;;;;5037585;28;20026;-66
2021/10/21 00:28:50;;;;;;;4.32;2.08;;;13.90;99.90;;;;;;5025241;28;20014;-65
2021/10/21 00:31:16;;;;;;;3.90;2.28;;;13.80;99.90;;;;;;5016684;28;20022;-66
2021/10/21 00:33:41;;;;;;;4.25;2.70;;;13.80;99.90;;;;;;5025682;28;20017;-66
2021/10/21 00:36:07;;;;;;;6.00;3.33;;;13.80;99.90;;;;;;5036121;28;20040;-66
2021/10/21 00:38:32;;;;;;;8.05;3.92;;;13.90;99.90;;;;;;5032855;28;20470;-66
2021/10/21 00:40:58;;;;;;;8.75;4.85;;;14.00;99.90;;;;;;5047545;28;20096;-66
2021/10/21 00:43:23;;;;;;;9.95;5.07;;;14.00;99.90;;;;;;5025105;28;20039;-66
2021/10/21 00:45:49;;;;;;;12.25;5.78;;;14.20;99.90;;;;;;5027639;28;20025;-65
2021/10/21 00:48:15;;;;;;;10.27;4.95;;;14.20;99.90;;;;;;5032753;28;20417;-66
2021/10/21 00:50:40;;;;;;;9.88;5.15;;;14.20;99.90;;;;;;5034764;28;20021;-65
2021/10/21 00:53:10;;;;;;;9.75;3.90;;;14.30;99.90;;;;;;5033587;28;20029;-65
2021/10/21 00:55:35;;;;;;;5.13;2.72;;;14.30;99.90;;;;;;5038493;28;20482;-66
2021/10/21 00:58:05;;;;;;;4.93;2.50;;;14.30;99.90;;;;;;5032640;28;20036;-66
2021/10/21 01:00:31;;;;;;;4.15;1.83;;;14.30;99.90;;;;;;5035156;28;20020;-66
2021/10/21 01:02:57;;;;;;;4.10;2.10;;;14.40;99.90;;;;;;5032846;28;20052;-66
2021/10/21 01:05:23;;;;;;;4.70;1.95;;;14.40;99.90;;;;;;5042314;28;20049;-66
2021/10/21 01:07:49;;;;;;;4.28;1.35;;;14.50;99.90;;;;;;5025714;28;21568;-66
2021/10/21 01:10:15;;;;;;;2.55;1.23;;;14.50;99.90;;;;;;5039626;28;20060;-66
2021/10/21 01:12:40;;;;;;;3.22;1.58;;;14.50;99.80;;;;;;5032400;28;20026;-66
2021/10/21 01:15:21;;;;;;;2.72;1.50;;;14.60;99.30;;;;;;5032567;28;20029;-66
2021/10/21 01:17:48;;;;;;;2.75;1.20;;;14.70;99.20;;;;;;5035327;28;20450;-66
2021/10/21 01:20:14;;;;;;;4.45;1.25;;;14.70;99.10;;;;;;5014348;28;20049;-65
2021/10/21 01:22:40;;;;;;;4.30;1.85;;;14.70;98.30;;;;;;5035817;28;20053;-65
2021/10/21 01:25:06;;;;;;;2.75;1.20;;;14.70;97.90;;;;;;5038333;28;20505;-65
2021/10/21 01:27:32;;;;;;;3.15;1.00;;;14.70;97.80;;;;;;5034873;28;20029;-66
2021/10/21 01:29:57;;;;;;;3.58;1.10;;;14.70;97.80;;;;;;5041633;28;20507;-66
2021/10/21 01:32:24;;;;;;;4.53;1.00;;;14.70;97.40;;;;;;5024876;28;20377;-66
2021/10/21 01:34:49;;;;;;;1.95;0.70;;;14.70;97.30;;;;;;5034473;28;20034;-65
2021/10/21 01:37:15;;;;;;;3.22;0.95;;;14.70;96.90;;;;;;5035010;28;20032;-65
2021/10/21 01:39:41;;;;;;;3.08;0.80;;;14.60;96.40;;;;;;5035210;28;20033;-66
2021/10/21 01:42:07;;;;;;;3.08;0.63;;;14.60;95.80;;;;;;5034925;28;20029;-66
2021/10/21 01:44:32;;;;;;;3.40;0.50;;;14.60;93.80;;;;;;5019423;28;20504;-66
2021/10/21 01:46:58;;;;;;;1.27;0.35;;;14.50;92.80;;;;;;5031767;28;20069;-66
2021/10/21 01:49:24;;;;;;;3.25;0.50;;;14.50;92.70;;;;;;5024387;28;20481;-66
2021/10/21 01:51:50;;;;;;;2.67;0.50;;;14.40;92.60;;;;;;5022146;28;20488;-66
2021/10/21 01:54:17;;;;;;;2.60;0.60;;;14.40;92.60;;;;;;5021956;28;20139;-65
2021/10/21 01:56:42;;;;;;;2.47;0.60;;;14.30;92.90;;;;;;5031589;28;20028;-65
2021/10/21 01:59:08;;;;;;;3.50;0.75;;;14.30;93.40;;;;;;5035259;28;20029;-66
2021/10/21 02:01:33;;;;;;;4.20;0.77;;;14.20;93.20;;;;;;5034274;28;20025;-65
2021/10/21 02:04:00;;;;;;;2.88;0.50;;;14.10;93.10;;;;;;5031419;28;20504;-65
2021/10/21 02:06:26;;;;;;;3.83;0.50;;;14.10;92.40;;;;;;5036470;28;20045;-65
2021/10/21 02:08:52;;;;;;;3.45;0.32;;;13.90;92.20;;;;;;5037411;28;20560;-65
2021/10/21 02:11:18;;;;;;;3.55;0.52;;;14.00;92.40;;;;;;5035234;28;20032;-65
2021/10/21 02:13:43;;;;;;;4.75;0.63;;;13.90;92.40;;;;;;5031590;28;20112;-65
2021/10/21 02:16:09;;;;;;;3.20;0.40;;;13.80;92.50;;;;;;5034128;28;20041;-65
2021/10/21 02:18:35;;;;;;;4.10;0.50;;;13.80;92.30;;;;;;5031592;28;20033;-65
2021/10/21 02:21:01;;;;;;;1.85;0.40;;;13.70;92.20;;;;;;5031243;28;20045;-65
2021/10/21 02:23:27;;;;;;;1.70;0.40;;;13.70;92.10;;;;;;5031173;28;20072;-65
2021/10/21 02:25:52;;;;;;;2.78;0.50;;;13.60;92.10;;;;;;5031749;28;20021;-65
2021/10/21 02:28:18;;;;;;;2.72;0.40;;;13.60;92.20;;;;;;5039626;28;20099;-64
2021/10/21 02:30:43;;;;;;;3.95;0.40;;;13.60;92.30;;;;;;5034674;28;20028;-65
2021/10/21 02:33:09;;;;;;;2.45;0.40;;;13.60;92.40;;;;;;5033340;28;20013;-65
2021/10/21 02:35:35;;;;;;;5.95;1.77;;;13.50;92.30;;;;;;5027131;28;20489;-65
2021/10/21 02:38:00;;;;;;;3.80;0.50;;;13.50;92.30;;;;;;5013308;28;20362;-65
2021/10/21 02:40:26;;;;;;;3.45;0.70;;;13.50;92.40;;;;;;5033938;28;20096;-65
2021/10/21 02:42:52;;;;;;;3.20;0.43;;;13.50;92.30;;;;;;5021370;28;20018;-64
2021/10/21 02:45:17;;;;;;;3.85;0.40;;;13.40;92.50;;;;;;5022887;28;20021;-64
2021/10/21 02:47:44;;;;;;;4.30;0.40;;;13.40;92.70;;;;;;5039277;28;20100;-64
2021/10/21 02:50:10;;;;;;;3.80;0.50;;;13.40;92.60;;;;;;5047166;28;20100;-64
2021/10/21 02:52:35;;;;;;;4.05;0.75;;;13.40;92.60;;;;;;5014027;28;20121;-65
2021/10/21 02:55:01;;;;;;;4.43;0.50;;;13.40;92.60;;;;;;5033943;28;20101;-64
2021/10/21 02:57:26;;;;;;;3.55;0.40;;;13.40;92.70;;;;;;5036645;28;20017;-64
2021/10/21 02:59:52;;;;;;;3.22;0.40;;;13.40;92.90;;;;;;5030664;28;20100;-64
2021/10/21 03:02:17;;;;;;;3.17;0.47;;;13.40;93.20;;;;;;5030939;28;20025;-64
2021/10/21 03:04:43;;;;;;;5.88;1.23;;;13.40;93.60;;;;;;5036442;28;20028;-64
2021/10/21 03:07:08;;;;;;;5.38;0.73;;;13.30;94.40;;;;;;4999378;28;20059;-64
2021/10/21 03:09:34;;;;;;;3.13;0.60;;;13.10;95.10;;;;;;5021444;28;20017;-64
2021/10/21 03:11:59;;;;;;;6.50;1.30;;;13.00;95.50;;;;;;5039163;28;20110;-64
2021/10/21 03:14:25;;;;;;;6.43;0.52;;;12.90;96.00;;;;;;5044539;28;20401;-64
2021/10/21 03:16:50;;;;;;;3.17;0.60;;;12.90;96.40;;;;;;5037439;28;20021;-64
2021/10/21 03:19:16;;;;;;;5.30;1.05;;;12.80;96.60;;;;;;5025242;28;20358;-64
2021/10/21 03:21:41;;;;;;;5.88;0.68;;;12.80;96.80;;;;;;5043240;28;20056;-64
2021/10/21 03:24:07;;;;;;;4.13;0.60;;;12.80;96.90;;;;;;5042990;28;20033;-64
2021/10/21 03:26:32;;;;;;;5.90;0.55;;;12.80;96.80;;;;;;5037752;28;20027;-64
2021/10/21 03:28:58;;;;;;;5.63;0.80;;;12.80;96.90;;;;;;5037426;28;20018;-64
2021/10/21 03:31:24;;;;;;;4.43;0.85;;;12.80;97.00;;;;;;5034346;28;20014;-64
2021/10/21 03:33:49;;;;;;;2.28;0.50;;;12.70;97.30;;;;;;5037219;28;20072;-64
2021/10/21 03:36:16;;;;;;;5.75;1.38;;;12.60;97.50;;;;;;5024754;28;20075;-64
2021/10/21 03:38:41;;;;;;;4.28;0.43;;;12.60;97.90;;;;;;5037685;28;20079;-64
2021/10/21 03:41:07;;;;;;;4.97;0.55;;;12.50;98.20;;;;;;5037810;28;20021;-64
2021/10/21 03:43:32;;;;;;;2.25;0.50;;;12.50;98.50;;;;;;5033882;28;20034;-64
2021/10/21 03:45:58;;;;;;;5.30;0.85;;;12.40;98.70;;;;;;5026069;28;20021;-64
2021/10/21 03:48:23;;;;;;;4.25;0.73;;;12.40;98.90;;;;;;5040337;28;20555;-64
2021/10/21 03:50:49;;;;;;;7.05;0.75;;;12.40;99.10;;;;;;5032494;28;20029;-64
2021/10/21 03:53:15;;;;;;;4.45;0.52;;;12.40;99.10;;;;;;5034425;28;20021;-64
2021/10/21 03:55:41;;;;;;;4.97;0.85;;;12.40;99.20;;;;;;5036760;28;20496;-64
2021/10/21 03:58:07;;;;;;;4.60;1.20;;;12.40;99.20;;;;;;5034102;28;20017;-64
2021/10/21 04:00:32;;;;;;;3.65;0.80;;;12.40;99.10;;;;;;5013592;28;20028;-64
2021/10/21 04:02:58;;;;;;;5.30;0.70;;;12.50;99.20;;;;;;5036840;28;20467;-64
2021/10/21 04:05:24;;;;;;;5.82;0.60;;;12.40;99.20;;;;;;5044845;28;20029;-64
2021/10/21 04:07:50;;;;;;;5.03;0.70;;;12.40;99.40;;;;;;5027400;28;20050;-64
2021/10/21 04:10:16;;;;;;;3.75;0.40;;;12.40;99.50;;;;;;5037441;28;20025;-64
2021/10/21 04:12:57;;;;;;;4.85;0.43;;;12.40;99.70;;;;;;5038680;28;20021;-64
2021/10/21 04:15:25;;;;;;;2.92;0.60;;;12.30;99.90;;;;;;5041061;28;20021;-63
2021/10/21 04:17:54;;;;;;;3.28;0.60;;;12.30;99.90;;;;;;5041309;28;20029;-64
2021/10/21 04:20:21;;;;;;;3.70;0.60;;;12.30;99.90;;;;;;5029152;28;20028;-64
2021/10/21 04:22:47;;;;;;;5.07;0.73;;;12.20;99.90;;;;;;5038745;28;20107;-63
2021/10/21 04:25:13;;;;;;;4.93;0.55;;;12.10;99.90;;;;;;5039555;28;20021;-64
2021/10/21 04:27:39;;;;;;;4.07;0.57;;;12.10;99.90;;;;;;5018632;28;20495;-64
2021/10/21 04:30:05;;;;;;;8.45;1.55;;;12.00;99.90;;;;;;5041664;28;20099;-64
2021/10/21 04:32:31;;;;;;;5.30;0.63;;;12.00;99.90;;;;;;5033764;28;20586;-64
2021/10/21 04:35:08;;;;;;;4.03;0.65;;;12.00;99.90;;;;;;5038139;28;20034;-64
2021/10/21 04:37:33;;;;;;;5.20;0.70;;;12.00;99.90;;;;;;5023520;28;20101;-63
2021/10/21 04:39:59;;;;;;;8.68;1.90;;;11.90;99.90;;;;;;5039580;28;20108;-64
2021/10/21 04:42:24;;;;;;;4.90;0.50;;;11.90;99.90;;;;;;5041527;28;20018;-64
2021/10/21 04:44:50;;;;;;;3.33;0.60;;;11.90;99.90;;;;;;5036935;28;20311;-64
2021/10/21 04:47:16;;;;;;;6.38;0.70;;;11.90;99.90;;;;;;5032483;28;20049;-63
2021/10/21 04:49:44;;;;;;;2.67;0.40;;;11.80;99.90;;;;;;5034464;28;20036;-63
2021/10/21 04:52:09;;;;;;;6.30;0.60;;;11.80;99.90;;;;;;5039321;28;20061;-64
2021/10/21 04:54:35;;;;;;;3.60;0.50;;;11.80;99.90;;;;;;5033613;28;20041;-64
2021/10/21 04:57:00;;;;;;;3.35;0.75;;;11.80;99.90;;;;;;5045448;28;20028;-63
2021/10/21 04:59:26;;;;;;;3.03;0.40;;;11.80;99.90;;;;;;5034051;28;20030;-63
2021/10/21 05:01:52;;;;;;;6.22;0.70;;;11.80;99.90;;;;;;5032697;28;20465;-64
2021/10/21 05:04:17;;;;;;;4.53;0.90;;;11.80;99.90;;;;;;5028859;28;20470;-64
2021/10/21 05:06:43;;;;;;;3.20;0.32;;;11.90;99.90;;;;;;5044455;28;20049;-64
2021/10/21 05:09:08;;;;;;;3.53;0.40;;;11.90;99.90;;;;;;5039174;28;20017;-64
2021/10/21 05:11:34;;;;;;;2.03;0.40;;;11.90;99.90;;;;;;5032557;28;20053;-64
2021/10/21 05:13:59;;;;;;;1.55;0.38;;;11.90;99.90;;;;;;5035264;28;20025;-65
2021/10/21 05:16:24;;;;;;;3.47;0.40;;;11.80;99.90;;;;;;5038283;28;20022;-64
2021/10/21 05:18:50;;;;;;;2.78;0.63;;;11.80;99.90;;;;;;5040645;28;20432;-64
2021/10/21 05:21:15;;;;;;;1.98;0.40;;;11.80;99.90;;;;;;5028428;28;20025;-64
2021/10/21 05:23:41;;;;;;;3.83;0.63;;;11.80;99.90;;;;;;5037759;28;20026;-64
2021/10/21 05:26:07;;;;;;;3.67;0.52;;;11.80;99.90;;;;;;5033232;28;20018;-64
2021/10/21 05:28:32;;;;;;;2.17;0.40;;;11.90;99.90;;;;;;5037859;28;20022;-64
2021/10/21 05:30:58;;;;;;;2.42;0.40;;;11.90;99.90;;;;;;5019496;28;20032;-64
2021/10/21 05:33:26;;;;;;;1.88;0.80;;;11.90;99.90;;;;;;5032315;28;20021;-64
2021/10/21 05:36:15;;;;;;;;;;;;;;;;;;;;;
2021/10/21 05:38:41;;;;;;;2.20;0.70;;;11.90;99.90;;;;;;5032051;28;20021;-64
2021/10/21 05:41:07;;;;;;;3.83;0.50;;;11.90;99.90;;;;;;5027302;28;20039;-64
2021/10/21 05:43:32;;;;;;;1.88;0.40;;;11.90;99.90;;;;;;5047612;28;20107;-63
2021/10/21 05:45:58;;;;;;;4.25;0.30;;;11.90;99.90;;;;;;5043551;28;20025;-63
2021/10/21 05:48:59;;;;;;;;;;;;;;;;;;;;;
2021/10/21 05:51:25;;;;;;;0.35;0.20;;;11.80;99.90;;;;;;5026135;28;20024;-64
2021/10/21 05:53:53;;;;;;;1.55;0.10;;;11.70;99.90;;;;;;5032282;28;20108;-64
2021/10/21 05:56:32;;;;;;;2.55;0.20;;;11.70;99.90;;;;;;5012957;28;20095;-64
2021/10/21 05:58:58;;;;;;;0.68;0.20;;;11.60;99.90;;;;;;5008506;28;20296;-64
2021/10/21 06:01:23;;;;;;;1.50;0.20;;;11.60;99.90;;;;;;5031632;28;20025;-64
2021/10/21 06:03:49;;;;;;;0.68;0.10;;;11.60;99.90;;;;;;5024977;28;20033;-64
2021/10/21 06:06:14;;;;;;;2.42;0.20;;;11.50;99.90;;;;;;5020357;28;20112;-64
2021/10/21 06:08:40;;;;;;;2.13;0.30;;;11.50;99.90;;;;;;5004415;28;20028;-64
2021/10/21 06:11:08;;;;;;;3.00;0.40;;;11.50;99.90;;;;;;5030584;28;20033;-64
2021/10/21 06:13:36;;;;;;;1.02;0.20;;;11.50;99.90;;;;;;5022718;28;20033;-65
2021/10/21 06:16:03;;;;;;;3.05;0.30;;;11.50;99.90;;;;;;5009999;28;20722;-64
2021/10/21 06:18:28;;;;;;;0.55;0.25;;;11.40;99.90;;;;;;5014759;28;20033;-64
2021/10/21 06:20:54;;;;;;;1.92;0.30;;;11.40;99.90;;;;;;5025395;28;20082;-64
2021/10/21 06:23:19;;;;;;;5.50;0.40;;;11.40;99.90;;;;;;5015577;28;20107;-64
2021/10/21 06:25:46;;;;;;;4.97;0.50;;;11.40;99.90;;;;;;5017514;28;20378;-65
2021/10/21 06:28:43;;;;;;;2.97;0.38;;;11.40;99.90;;;;;;5025214;28;20029;-66
2021/10/21 06:31:15;;;;;;;4.03;0.63;;;11.30;99.90;;;;;;5022659;28;20028;-64
2021/10/21 06:33:41;;;;;;;6.05;0.52;;;11.30;99.90;;;;;;5025560;28;20030;-64
2021/10/21 06:36:06;;;;;;;4.88;0.43;;;11.30;99.90;;;;;;5023658;28;20509;-64
2021/10/21 06:38:32;;;;;;;4.32;0.55;;;11.30;99.90;;;;;;5024780;28;20025;-64
2021/10/21 06:41:11;;;;;;;3.00;0.50;;;11.30;99.90;;;;;;5007976;28;20051;-64
2021/10/21 06:43:37;;;;;;;4.32;0.60;;;11.30;99.90;;;;;;5025119;28;20045;-64
2021/10/21 06:48:58;;;;;;;6.22;0.70;;;11.30;99.90;;;;;;5004502;28;20047;-66
2021/10/21 06:51:24;;;;;;;10.48;0.80;;;11.30;99.90;;;;;;5026071;28;20096;-64
2021/10/21 06:53:49;;;;;;;7.95;0.85;;;11.30;99.90;;;;;;5021004;28;20135;-65
2021/10/21 06:56:15;;;;;;;5.65;0.80;;;11.30;99.90;;;;;;5028259;28;20044;-65
2021/10/21 06:58:59;;;;;;;;;;;;;;;;;;;;;
2021/10/21 07:05:08;;;;;;;9.80;1.15;;;11.40;99.90;;;;;;4926478;29;20047;-64
2021/10/21 07:07:34;;;;;;;5.10;0.90;;;11.30;99.90;;;;;;4941455;29;20043;-65
2021/10/21 07:10:00;;;;;;;5.03;1.10;;;11.40;99.90;;;;;;4971502;28;20038;-65
2021/10/21 07:12:26;;;;;;;7.10;2.03;;;11.40;99.90;;;;;;5031925;28;20020;-65
2021/10/21 07:15:09;;;;;;;;;;;;;;;;;;;;;
2021/10/21 07:23:16;;;;;;;8.52;1.38;;;11.40;99.90;;;;;;4992465;28;20058;-64
2021/10/21 07:25:41;;;;;;;11.57;1.77;;;11.40;99.90;;;;;;5012197;28;20033;-65
2021/10/21 07:28:07;;;;;;;8.48;1.25;;;11.40;99.90;;;;;;4997453;28;20029;-65
2021/10/21 07:30:32;;;;;;;7.57;1.00;;;11.40;99.90;;;;;;4987949;28;20022;-65
2021/10/21 07:32:58;;;;;;;9.05;1.38;;;11.40;99.90;;;;;;5003855;28;20029;-65
2021/10/21 07:35:25;;;;;;;5.82;1.02;;;11.40;99.90;;;;;;4997696;28;20100;-65
2021/10/21 07:37:51;;;;;;;8.00;1.10;;;11.40;99.90;;;;;;4990139;28;20081;-65
2021/10/21 07:40:17;;;;;;;7.72;1.02;;;11.40;99.90;;;;;;4997106;28;20638;-65
2021/10/21 07:42:43;;;;;;;10.23;1.23;;;11.40;99.90;;;;;;4990924;28;20030;-65
2021/10/21 07:45:10;;;;;;;4.93;0.95;;;11.40;99.90;;;;;;5005257;28;20176;-65
2021/10/21 07:47:36;;;;;;;6.35;1.15;;;11.40;99.90;;;;;;4975921;28;20054;-65
2021/10/21 07:50:04;;;;;;;8.88;1.48;;;11.40;99.90;;;;;;4999448;28;20496;-64
2021/10/21 07:52:46;;;;;;;9.75;1.77;;;11.40;99.90;;;;;;4994853;28;20085;-65
2021/10/21 07:55:11;;;;;;;9.00;1.38;;;11.40;99.40;;;;;;4985793;28;20026;-65
2021/10/21 07:57:37;;;;;;;7.53;1.55;;;11.50;98.80;;;;;;5005329;28;20033;-65
2021/10/21 08:00:09;;;;;;;10.55;1.63;;;11.50;98.30;;;;;;4986706;28;20026;-65
2021/10/21 08:02:34;;;;;;;7.07;1.15;;;11.50;97.70;;;;;;4976058;28;20030;-65
2021/10/21 08:04:59;;;;;;;5.90;1.05;;;11.50;96.70;;;;;;4995606;28;20037;-65
2021/10/21 08:07:25;;;;;;;8.18;1.08;;;11.60;96.50;;;;;;4997253;28;20359;-65
2021/10/21 08:09:51;;;;;;;7.32;2.38;;;11.60;96.30;;;;;;5010093;28;20022;-65
2021/10/21 08:12:16;;;;;;;7.95;0.93;;;11.60;95.80;;;;;;5006790;28;20026;-65
2021/10/21 08:14:42;;;;;;;9.82;1.25;;;11.60;95.40;;;;;;5008364;28;20030;-65
2021/10/21 08:17:31;;;;;;;10.23;1.73;;;11.60;95.10;;;;;;5000911;28;20060;-65
2021/10/21 08:19:58;;;;;;;8.13;1.10;;;11.70;95.00;;;;;;4995895;28;20034;-65
2021/10/21 08:22:24;;;;;;;9.32;1.13;;;11.70;94.80;;;;;;5020231;28;20517;-65
2021/10/21 08:24:50;;;;;;;9.32;1.38;;;11.70;94.60;;;;;;5027190;28;20075;-65
2021/10/21 08:27:15;;;;;;;8.13;1.38;;;11.80;94.70;;;;;;5025065;28;20018;-65
2021/10/21 08:29:41;;;;;;;10.32;1.20;;;11.90;94.70;;;;;;5027225;28;20101;-65
2021/10/21 08:32:07;;;;;;;9.13;1.27;;;12.00;94.70;;;;;;5001430;28;20013;-65
2021/10/21 08:34:33;;;;;;;4.90;0.85;;;12.00;94.60;;;;;;5034548;28;20048;-65
2021/10/21 08:36:59;;;;;;;9.90;1.80;;;12.10;94.70;;;;;;5033454;28;20452;-65
2021/10/21 08:39:42;;;;;;;6.72;1.00;;;12.10;94.70;;;;;;5016160;28;20060;-65
2021/10/21 08:42:10;;;;;;;6.80;1.02;;;12.20;94.60;;;;;;5019556;28;20017;-65
2021/10/21 08:44:36;;;;;;;7.00;1.05;;;12.20;94.20;;;;;;5023641;28;20022;-65
2021/10/21 08:47:49;;;;;;;;;;;;;;;;;;;;;
2021/10/21 08:50:17;;;;;;;9.30;2.13;;;12.20;94.20;;;;;;4958520;28;20480;-65
2021/10/21 08:52:44;;;;;;;10.07;1.13;;;12.10;94.60;;;;;;4996782;28;20168;-65
2021/10/21 08:55:11;;;;;;;7.93;0.80;;;12.10;94.80;;;;;;5024445;28;20104;-65
2021/10/21 08:57:37;;;;;;;6.20;0.98;;;12.00;95.00;;;;;;5013339;28;20371;-65
2021/10/21 09:00:04;;;;;;;4.70;1.00;;;12.00;95.10;;;;;;5012291;28;20137;-65
2021/10/21 09:02:44;;;;;;;5.93;1.00;;;11.90;95.40;;;;;;5022667;28;20026;-66
2021/10/21 09:05:19;;;;;;;;;;;11.90;95.80;;;;;;5029684;28;20083;-65
2021/10/21 09:07:57;;;;;;;7.20;1.30;;;11.70;96.10;;;;;;4999790;28;19952;-65
2021/10/21 09:10:24;;;;;;;6.10;1.05;;;11.70;96.80;;;;;;4991260;28;20387;-65
2021/10/21 09:12:50;;;;;;;7.40;1.15;;;11.70;97.10;;;;;;5022192;28;20033;-65
2021/10/21 09:15:23;;;;;;;7.40;1.10;;;11.70;97.20;;;;;;5026397;28;20029;-65
2021/10/21 09:17:49;;;;;;;9.57;1.10;;;11.70;97.30;;;;;;5021580;28;20505;-65
2021/10/21 09:20:38;;;;;;;6.20;0.90;;;11.60;97.30;;;;;;5029480;28;20029;-65
2021/10/21 09:23:12;;;;;;;4.18;0.80;;;11.60;97.50;;;;;;5013678;28;20628;-65
2021/10/21 09:25:39;;;;;;;9.07;1.38;;;11.50;97.80;;;;;;5028167;28;20037;-65
2021/10/21 09:28:16;;;;;;;7.15;1.20;;;11.50;98.00;;;;;;5030835;28;20028;-65
2021/10/21 09:30:50;;;;;;;9.70;1.15;;;11.50;98.20;;;;;;5014803;28;20447;-65
2021/10/21 09:33:56;;;;;;;;;;;;;;;;;;;;;
2021/10/21 09:36:51;;;;;;;3.78;0.80;;;11.50;98.50;;;;;;4958241;28;20397;-65
2021/10/21 09:39:16;;;;;;;7.43;0.82;;;11.40;98.10;;;;;;4991292;28;20038;-65
2021/10/21 09:41:42;;;;;;;6.78;1.40;;;11.40;98.40;;;;;;5013176;28;20042;-65
2021/10/21 09:44:24;;;;;;;4.72;0.90;;;11.30;98.50;;;;;;5033278;28;20033;-65
2021/10/21 09:46:49;;;;;;;6.20;0.65;;;11.30;98.70;;;;;;5031541;28;20026;-65
2021/10/21 09:49:36;;;;;;;4.63;0.77;;;11.20;98.90;;;;;;5019087;28;20076;-65
2021/10/21 09:52:02;;;;;;;8.85;1.52;;;11.20;99.10;;;;;;5018277;28;20018;-65
2021/10/21 09:54:29;;;;;;;5.32;1.33;;;11.20;99.30;;;;;;5015278;28;20033;-65
2021/10/21 09:56:56;;;;;;;6.45;0.70;;;11.10;99.40;;;;;;5025997;28;20029;-65
2021/10/21 10:00:00;;;;;;;5.18;0.70;;;11.10;99.80;;;;;;5014613;28;20025;-64
2021/10/21 10:02:31;;;;;;;6.03;1.20;;;11.10;99.90;;;;;;4998975;28;20033;-64
2021/10/21 10:11:39;;;;;;;5.38;0.90;;;11.30;99.90;;;;;;5000284;28;20053;-64
2021/10/21 10:17:17;;;;;;;3.38;0.60;;;11.50;99.90;;;;;;4938376;29;20026;-64
2021/10/21 10:19:45;;;;;;;2.95;0.60;;;11.50;99.90;;;;;;4935857;29;20028;-64
2021/10/21 10:22:31;;;;;;;3.92;1.08;;;11.70;99.90;;;;;;4986761;28;20054;-64
2021/10/21 10:24:57;;;;;;;8.52;1.25;;;11.90;99.90;;;;;;5023896;28;20029;-64
2021/10/21 10:27:28;;;;;;;5.85;0.85;;;12.00;99.90;;;;;;5032011;28;20512;-64
2021/10/21 10:30:12;;;;;;;3.22;0.70;;;12.70;99.60;;;;;;5014744;28;20060;-64
2021/10/21 10:39:59;;;;;;;3.40;0.70;;;15.30;94.90;;;;;;4876415;29;20037;-64
2021/10/21 10:42:37;;;;;;;7.00;1.00;;;15.50;94.60;;;;;;4955868;28;20099;-64
2021/10/21 10:45:07;;;;;;;3.05;0.70;;;17.40;91.60;;;;;;5031631;28;20021;-64
2021/10/21 10:47:54;;;;;;;5.53;1.15;;;19.00;88.00;;;;;;5012021;28;20026;-64
2021/10/21 10:50:22;;;;;;;3.95;1.02;;;20.80;77.60;;;;;;5018513;28;20029;-65
2021/10/21 10:53:24;;;;;;;4.53;1.35;;;21.70;74.90;;;;;;5017959;28;20018;-65
2021/10/21 10:55:52;;;;;;;5.97;1.40;;;23.80;69.90;;;;;;5006210;28;20056;-65
2021/10/21 10:58:26;;;;;;;4.70;0.90;;;24.70;61.70;;;;;;5021555;28;20022;-65
2021/10/21 11:00:55;;;;;;;6.07;1.00;;;23.80;61.00;;;;;;5008755;28;20486;-65
2021/10/21 11:03:39;;;;;;;5.22;0.85;;;23.90;60.10;;;;;;5016374;28;20026;-65
2021/10/21 11:06:07;;;;;;;3.92;1.08;;;22.80;61.30;;;;;;5021033;28;20026;-65
2021/10/21 11:08:52;;;;;;;3.70;1.00;;;21.40;63.00;;;;;;5011570;28;20032;-65
2021/10/21 11:11:37;;;;;;;3.55;0.80;;;20.00;65.30;;;;;;5024137;28;20021;-65
2021/10/21 11:14:08;;;;;;;8.40;1.92;;;18.80;69.90;;;;;;5011286;28;20022;-66
2021/10/21 11:16:42;;;;;;;5.32;0.90;;;19.00;70.10;;;;;;5012364;28;20421;-65
2021/10/21 11:19:08;;;;;;;4.85;1.02;;;18.60;70.60;;;;;;5012618;28;20029;-65
2021/10/21 11:21:52;;;;;;;5.53;0.90;;;18.60;71.60;;;;;;4993293;28;20049;-66
2021/10/21 11:24:43;;;;;;;4.78;0.80;;;18.00;69.80;;;;;;5018570;28;20496;-65
2021/10/21 11:27:08;;;;;;;3.78;0.80;;;17.30;72.50;;;;;;5016992;28;20026;-65
2021/10/21 11:29:34;;;;;;;5.35;0.90;;;16.60;74.90;;;;;;5017719;28;20022;-66
2021/10/21 11:32:04;;;;;;;5.28;0.80;;;16.30;77.30;;;;;;5019566;28;20029;-66
2021/10/21 11:34:30;;;;;;;3.35;0.70;;;16.10;78.20;;;;;;5035840;28;20405;-66
2021/10/21 11:36:55;;;;;;;5.50;0.80;;;16.20;79.10;;;;;;5033812;28;20021;-66
2021/10/21 11:39:32;;;;;;;7.43;1.30;;;16.10;78.80;;;;;;5035024;28;20162;-65
2021/10/21 11:42:35;;;;;;;;;;;;;;;;;;;;;
2021/10/21 11:49:25;;;;;;;9.13;1.20;;;15.40;79.70;;;;;;4919409;29;20044;-65
2021/10/21 11:52:04;;;;;;;6.15;1.02;;;15.20;82.50;;;;;;4926917;28;20030;-65
2021/10/21 11:54:30;;;;;;;2.65;1.40;;;15.40;80.60;;;;;;5025043;28;20028;-66
2021/10/21 11:56:56;;;;;;;3.38;0.40;;;15.40;83.40;;;;;;5025941;28;20384;-65
2021/10/21 11:59:38;;;;;;;1.65;0.30;;;15.80;82.80;;;;;;5028099;28;20029;-65
2021/10/21 12:15:45;;;;;;;1.20;0.30;;;16.60;76.80;;;;;;4824356;29;20072;-66
2021/10/21 12:18:10;;;;;;;1.85;0.20;;;16.00;79.20;;;;;;4855627;29;20026;-66
2021/10/21 12:20:42;;;;;;;1.27;0.32;;;15.60;80.00;;;;;;5000012;28;20030;-66
2021/10/21 12:23:12;;;;;;;1.95;0.30;;;15.20;81.10;;;;;;4996158;28;20038;-66
2021/10/21 12:25:38;;;;;;;2.65;0.50;;;15.00;82.30;;;;;;5025719;28;20451;-66
2021/10/21 12:28:04;;;;;;;2.35;0.60;;;14.80;83.10;;;;;;5020250;28;20525;-65
2021/10/21 12:30:35;;;;;;;3.33;0.50;;;14.70;83.80;;;;;;5025837;28;20030;-66
2021/10/21 12:33:41;;;;;;;;;;;;;;;;;;;;;
2021/10/21 12:37:23;;;;;;;3.60;0.30;;;14.30;84.00;;;;;;5015147;28;20032;-66
2021/10/21 12:39:41;;;;;;;1.70;0.30;;;14.10;84.20;;;;;;5008571;28;20030;-65
2021/10/21 12:42:27;;;;;;;1.50;0.30;;;13.90;84.80;;;;;;5027243;28;20029;-66
2021/10/21 12:44:59;;;;;;;1.60;0.43;;;13.80;85.00;;;;;;5026236;28;20474;-65
2021/10/21 12:47:29;;;;;;;2.17;0.40;;;13.70;85.30;;;;;;5015132;28;20029;-65
2021/10/21 12:50:08;;;;;;;3.53;0.40;;;13.60;85.60;;;;;;5025618;28;20017;-65
2021/10/21 12:52:40;;;;;;;2.65;0.38;;;13.60;85.90;;;;;;5029321;28;20014;-65
2021/10/21 12:58:28;;;;;;;2.75;0.40;;;13.40;86.90;;;;;;5004164;28;20045;-65
2021/10/21 13:00:58;;;;;;;3.05;0.50;;;13.90;88.00;;;;;;5030226;28;20029;-65
2021/10/21 13:03:23;;;;;;;1.75;0.55;;;14.90;86.90;;;;;;5022959;28;20037;-66
2021/10/21 13:06:19;;;;;;;1.60;0.82;;;16.20;83.90;;;;;;5026396;28;20018;-66
2021/10/21 13:09:01;;;;;;;;;;;;;;;;;;;;;
2021/10/21 13:12:42;;;;;;;3.28;0.50;;;17.50;77.60;;;;;;5013564;28;20021;-66
2021/10/21 13:15:06;;;;;;;1.83;0.30;;;17.10;76.90;;;;;;5005566;28;20448;-66
2021/10/21 13:17:32;;;;;;;2.90;0.50;;;16.40;78.00;;;;;;5017276;28;20593;-66
2021/10/21 13:19:59;;;;;;;2.47;0.40;;;15.90;79.10;;;;;;5014111;28;20030;-66
2021/10/21 13:23:01;;;;;;;2.35;0.50;;;15.50;80.60;;;;;;5009437;28;20060;-66
2021/10/21 13:25:27;;;;;;;3.55;0.70;;;15.10;81.20;;;;;;5004820;28;20151;-65
2021/10/21 13:27:54;;;;;;;4.18;0.50;;;14.60;83.30;;;;;;5032082;28;20057;-65
2021/10/21 13:30:19;;;;;;;1.58;0.40;;;14.40;84.00;;;;;;5010252;28;20022;-65
2021/10/21 13:32:45;;;;;;;2.92;0.47;;;14.10;84.20;;;;;;5013628;28;20033;-65
2021/10/21 13:35:11;;;;;;;4.10;0.43;;;13.90;85.20;;;;;;5027537;28;20445;-65
2021/10/21 13:37:37;;;;;;;5.13;0.50;;;13.80;85.50;;;;;;5031875;28;20025;-65
2021/10/21 13:40:03;;;;;;;4.68;0.60;;;13.60;85.90;;;;;;5026838;28;20481;-65
2021/10/21 13:42:28;;;;;;;3.10;0.77;;;13.50;86.30;;;;;;5018010;28;20482;-65
2021/10/21 13:44:54;;;;;;;1.73;0.43;;;13.40;86.50;;;;;;5011088;28;20033;-66
2021/10/21 13:47:20;;;;;;;3.03;0.47;;;13.40;86.80;;;;;;5026342;28;20026;-66
2021/10/21 13:49:45;;;;;;;3.58;0.40;;;13.50;87.10;;;;;;5030999;28;20103;-66
2021/10/21 13:52:11;;;;;;;2.88;0.38;;;13.60;87.00;;;;;;5013387;28;20096;-65
2021/10/21 13:54:36;;;;;;;4.78;0.60;;;13.60;87.10;;;;;;5010052;28;20032;-65
2021/10/21 13:57:33;;;;;;;;;;;;;;;;;;;;;
2021/10/21 14:00:53;;;;;;;2.25;0.30;;;13.20;87.90;;;;;;5026565;28;20033;-65
2021/10/21 14:03:19;;;;;;;2.95;0.32;;;13.00;88.00;;;;;;4994046;28;20096;-66